Details From EGSS - London Stansted
To GCGM - La Gomera
Flight Number -
Tags Generated
Created
Modified
Stats Distance 1,633 nm / 3,024 km
Max Altitude 0 ft / 0 m
Waypoints 5
Social Downloads 0
Likes 0
Share VATSIM

Download

Looking for another format? Having issues loading an existing format? Contact us
Advertisement - Login to hide

Notes

Generated

Route

EGSS BASIK VGO LGM GCGM

ID Type Via Altitude Latitude Longitude Leg Dist Tot Dist Heading (true) Name
O EGSS APT - 0 ft / 0 m 51.87508˚ 0.21993˚ - 0 nm - -
BASIK FIX - 0 ft / 0 m 48.95361˚ -2.95111˚ 213 nm 213 nm 216° / 213° -
VGO VOR - 0 ft / 0 m 42.32131˚ -8.60164˚ 463 nm 676 nm 213° / 209° VIGO VOR-DME
LGM VOR - 0 ft / 0 m 28.02874˚ -17.21487˚ 955 nm 1632 nm 209° / 204° LA GOMERA VOR-DME
O GCGM APT - 0 ft / 0 m 28.02859˚ -17.22214˚ 0 nm 1632 nm 269° / 269° -

Altitude Profile

Advertisement - Login to hide

Weather


0- 5 10 15 20 25 30 35+ Temperature / ° C

Clouds and Precipitation
Forecast for 2018-05-27 06:00 UTC. Updated 19 minutes ago

Ground ~20,000 ft ~40,000 ft Winds

EGSS

Details ICAO EGSS (STN)
Name London Stansted
Region United Kingdom
Timezone Europe/London (UTC+1.0)
Stats Elevation 348 ft / 106 m (AMSL)
Location 51.885097° 0.234962°
Runways 1
Magnetic Variation 0.296° W

METAR

EGSS 270520Z AUTO 01007KT 6000 NCD 13/13 Q1017

Decode

TAF

TAF EGSS 262300Z 2700/2806 05009KT 9999 FEW030 PROB40 TEMPO 2700/2712 3000 +TSRA BKN012 BKN040CB TEMPO 2712/2721 5000 +SHRA TSRA BKN014 BKN040CB PROB40 TEMPO 2712/2721 VRB15G25KT 2000 +TSGR PROB30 TEMPO 2721/2806 6000 TSRA BKN012 BKN040CB

Decode

Departure Runways

ID Width Length Bearing (true) Bearing (mag) Surface Threshold Offset Overrun Length
04 151 ft / 46 m 10,011 ft / 3,052 m 42.79° 43.09° Asphalt 994 ft / 303 m 0 ft / 0 m
22 151 ft / 46 m 10,011 ft / 3,052 m 222.81° 223.11° Asphalt 0 ft / 0 m 0 ft / 0 m

GCGM

Details ICAO GCGM (GMZ)
Name La Gomera
Region Canary Islands
Timezone Atlantic/Canary (UTC+1.0)
Stats Elevation 715 ft / 218 m (AMSL)
Location 28.029627° -17.214603°
Runways 1
Magnetic Variation 5.307° W

METAR

GCGM 270530Z AUTO VRB05G15KT 9999 NCD 17/10 Q1019 RMK R09/33004KT 280V010 ARP/03006KT 320V100

Decode

TAF

TAF GCGM 270200Z 2703/2803 VRB05KT 9999 FEW030 TX23/2714Z TN17/2705Z

Decode

Destination Runways

ID Width Length Bearing (true) Bearing (mag) Surface Threshold Offset Overrun Length
09 98 ft / 30 m 4,914 ft / 1,498 m 81.17° 86.48° Asphalt 0 ft / 0 m 0 ft / 0 m
27 98 ft / 30 m 4,914 ft / 1,498 m 261.18° 266.49° Asphalt 0 ft / 0 m 0 ft / 0 m

Popular Alternatives